createdAt,value
2023-05-19T00:01:15.237Z,55.14
2023-05-19T00:03:52.631Z,54.76
2023-05-19T00:06:24.094Z,55.06
2023-05-19T00:08:58.041Z,54.90
2023-05-19T00:11:27.991Z,55.25
2023-05-19T00:13:56.614Z,55.00
2023-05-19T00:16:26.157Z,55.12
2023-05-19T00:18:54.423Z,55.74
2023-05-19T00:21:22.475Z,55.67
2023-05-19T00:23:50.558Z,56.38
2023-05-19T00:26:18.579Z,57.36
2023-05-19T00:28:47.911Z,57.52
2023-05-19T00:31:15.940Z,57.58
2023-05-19T00:33:43.994Z,57.51
2023-05-19T00:36:11.930Z,57.01
2023-05-19T00:38:40.083Z,57.12
2023-05-19T00:41:08.675Z,56.57
2023-05-19T00:43:36.595Z,56.39
2023-05-19T00:46:07.407Z,56.18
2023-05-19T00:48:35.417Z,56.11
2023-05-19T00:51:06.462Z,55.94
2023-05-19T00:53:35.523Z,55.78
2023-05-19T00:56:04.282Z,56.55
2023-05-19T00:58:33.084Z,57.04
2023-05-19T01:01:04.251Z,57.64
2023-05-19T01:03:36.129Z,58.11
2023-05-19T01:06:06.046Z,57.77
2023-05-19T01:08:34.561Z,57.51
2023-05-19T01:11:02.641Z,57.21
2023-05-19T01:13:31.281Z,56.80
2023-05-19T01:16:06.828Z,56.56
2023-05-19T01:18:49.007Z,56.35
2023-05-19T01:21:36.534Z,56.26
2023-05-19T01:24:18.093Z,56.41
2023-05-19T01:27:11.087Z,57.23
2023-05-19T01:30:02.136Z,57.34
2023-05-19T01:32:32.064Z,57.21
2023-05-19T01:35:00.202Z,56.89
2023-05-19T01:37:28.569Z,56.83
2023-05-19T01:39:56.915Z,56.75
2023-05-19T01:42:25.056Z,56.88
2023-05-19T01:44:53.551Z,57.31
2023-05-19T01:47:21.504Z,57.03
2023-05-19T01:49:50.847Z,57.18
2023-05-19T01:52:18.865Z,57.12
2023-05-19T01:54:46.789Z,57.18
2023-05-19T01:57:29.243Z,57.00
2023-05-19T02:00:05.707Z,56.92
2023-05-19T02:02:42.383Z,57.07
2023-05-19T02:05:16.854Z,57.12
2023-05-19T02:07:48.531Z,56.94
2023-05-19T02:10:20.598Z,57.25
2023-05-19T02:12:51.259Z,57.13
2023-05-19T02:15:22.825Z,57.11
2023-05-19T02:17:54.431Z,57.28
2023-05-19T02:20:23.806Z,57.17
2023-05-19T02:22:51.793Z,57.15
2023-05-19T02:25:19.820Z,57.25
2023-05-19T02:27:49.164Z,57.30
2023-05-19T02:30:17.126Z,57.45
2023-05-19T02:32:46.913Z,57.32
2023-05-19T02:35:14.978Z,57.39
2023-05-19T02:37:44.416Z,57.12
2023-05-19T02:40:12.712Z,57.41
2023-05-19T02:42:40.720Z,57.52
2023-05-19T02:45:09.660Z,57.46
2023-05-19T02:47:38.412Z,57.40
2023-05-19T02:50:07.607Z,57.68
2023-05-19T02:52:35.527Z,57.49
2023-05-19T02:55:05.020Z,57.56
2023-05-19T02:57:34.268Z,57.56
2023-05-19T03:00:02.436Z,57.58
2023-05-19T03:02:30.819Z,57.54
2023-05-19T03:05:01.630Z,57.62
2023-05-19T03:07:30.780Z,58.09
2023-05-19T03:09:58.741Z,58.03
2023-05-19T03:12:28.053Z,57.99
2023-05-19T03:14:55.967Z,58.00
2023-05-19T03:17:23.983Z,58.03
2023-05-19T03:19:52.255Z,58.31
2023-05-19T03:22:20.989Z,58.56
2023-05-19T03:24:51.135Z,58.29
2023-05-19T03:27:19.110Z,58.39
2023-05-19T03:29:48.444Z,58.56
2023-05-19T03:32:16.465Z,58.39
2023-05-19T03:34:44.382Z,58.68
2023-05-19T03:37:13.007Z,58.66
2023-05-19T03:39:40.927Z,58.90
2023-05-19T03:42:09.073Z,58.99
2023-05-19T03:44:37.051Z,58.83
2023-05-19T03:47:07.078Z,58.93
2023-05-19T03:49:35.017Z,58.69
2023-05-19T03:52:03.455Z,58.90
2023-05-19T03:54:31.776Z,58.87
2023-05-19T03:56:59.756Z,58.69
2023-05-19T03:59:27.988Z,58.97
2023-05-19T04:01:57.914Z,58.90
2023-05-19T04:04:28.453Z,59.20
2023-05-19T04:06:56.528Z,59.19
2023-05-19T04:09:24.679Z,59.00
2023-05-19T04:11:52.617Z,58.96
2023-05-19T04:14:21.248Z,59.22
2023-05-19T04:16:49.273Z,59.04
2023-05-19T04:19:17.243Z,59.30
2023-05-19T04:21:47.056Z,60.08
2023-05-19T04:24:14.962Z,59.47
2023-05-19T04:26:46.100Z,59.38
2023-05-19T04:29:18.184Z,59.22
2023-05-19T04:31:46.753Z,59.39
2023-05-19T04:34:14.684Z,59.82
2023-05-19T04:36:42.689Z,60.85
2023-05-19T04:39:12.437Z,59.67
2023-05-19T04:41:40.646Z,59.79
2023-05-19T04:44:09.106Z,59.68
2023-05-19T04:46:37.113Z,59.76
2023-05-19T04:49:05.052Z,59.71
2023-05-19T04:51:33.032Z,59.67
2023-05-19T04:54:01.579Z,59.94
2023-05-19T04:56:31.009Z,60.06
2023-05-19T04:58:58.960Z,60.86
2023-05-19T05:01:27.012Z,60.37
2023-05-19T05:03:56.228Z,60.58
2023-05-19T05:06:24.202Z,60.55
2023-05-19T05:08:52.671Z,60.50
2023-05-19T05:11:21.446Z,60.11
2023-05-19T05:13:51.469Z,60.16
2023-05-19T05:16:19.950Z,60.47
2023-05-19T05:18:48.490Z,60.37
2023-05-19T05:21:16.995Z,60.33
2023-05-19T05:23:45.487Z,60.52
2023-05-19T05:26:19.339Z,60.21
2023-05-19T05:28:47.268Z,60.79
2023-05-19T05:31:17.070Z,60.43
2023-05-19T05:33:45.156Z,63.00
2023-05-19T05:36:13.766Z,60.38
2023-05-19T05:38:41.730Z,60.24
2023-05-19T05:41:09.734Z,60.56
2023-05-19T05:43:37.760Z,60.43
2023-05-19T05:46:05.834Z,60.40
2023-05-19T05:48:36.002Z,60.38
2023-05-19T05:51:04.573Z,60.36
2023-05-19T05:53:33.202Z,60.46
2023-05-19T05:56:01.760Z,60.52
2023-05-19T05:58:29.865Z,60.59
2023-05-19T06:00:58.788Z,60.64
2023-05-19T06:03:27.006Z,60.18
2023-05-19T06:05:56.628Z,60.34
2023-05-19T06:08:24.678Z,60.83
2023-05-19T06:10:52.652Z,61.15
2023-05-19T06:13:24.091Z,60.77
2023-05-19T06:15:52.768Z,59.98
2023-05-19T06:18:20.769Z,59.88
2023-05-19T06:20:48.716Z,59.56
2023-05-19T06:23:18.027Z,59.61
2023-05-19T06:25:46.170Z,60.77
2023-05-19T06:28:14.115Z,63.86
2023-05-19T06:30:42.100Z,59.04
2023-05-19T06:33:10.052Z,63.86
2023-05-19T06:35:38.025Z,60.89
2023-05-19T06:38:05.997Z,58.74
2023-05-19T06:40:36.085Z,60.59
2023-05-19T06:43:06.997Z,58.91
2023-05-19T06:45:34.979Z,58.67
2023-05-19T06:48:03.069Z,59.61
2023-05-19T06:50:31.333Z,59.32
2023-05-19T06:52:59.589Z,63.27
2023-05-19T06:55:27.581Z,60.16
2023-05-19T06:57:57.465Z,60.07
2023-05-19T07:00:25.450Z,59.52
2023-05-19T07:02:53.570Z,58.73
2023-05-19T07:05:21.807Z,56.91
2023-05-19T07:07:51.881Z,57.08
2023-05-19T07:10:21.501Z,56.65
2023-05-19T07:12:49.541Z,56.99
2023-05-19T07:15:18.913Z,60.02
2023-05-19T07:17:46.904Z,56.56
2023-05-19T07:20:15.036Z,55.92
2023-05-19T07:22:42.999Z,56.13
2023-05-19T07:25:11.495Z,58.78
2023-05-19T07:27:39.452Z,57.24
2023-05-19T07:30:08.826Z,56.30
2023-05-19T07:32:38.257Z,56.02
2023-05-19T07:35:07.568Z,56.04
2023-05-19T07:37:36.078Z,55.81
2023-05-19T07:40:04.487Z,56.53
2023-05-19T07:42:32.404Z,55.50
2023-05-19T07:45:00.324Z,57.60
2023-05-19T07:47:28.380Z,55.73
2023-05-19T07:49:57.695Z,56.27
2023-05-19T07:52:25.671Z,54.55
2023-05-19T07:54:54.076Z,54.39
2023-05-19T07:57:22.160Z,53.51
2023-05-19T07:59:50.111Z,53.34
2023-05-19T08:02:18.213Z,54.69
2023-05-19T08:04:46.281Z,52.46
2023-05-19T08:07:15.642Z,51.86
2023-05-19T08:09:43.641Z,51.32
2023-05-19T08:12:11.624Z,52.01
2023-05-19T08:14:39.550Z,51.46
2023-05-19T08:17:07.494Z,50.31
2023-05-19T08:19:35.569Z,50.37
2023-05-19T08:22:06.058Z,50.03
2023-05-19T08:24:35.515Z,50.74
2023-05-19T08:27:04.881Z,49.70
2023-05-19T08:29:32.935Z,49.89
2023-05-19T08:32:02.529Z,50.28
2023-05-19T08:34:30.515Z,50.44
2023-05-19T08:36:59.778Z,49.58
2023-05-19T08:39:27.759Z,48.89
2023-05-19T08:41:57.316Z,49.45
2023-05-19T08:44:25.309Z,49.71
2023-05-19T08:46:55.773Z,48.70
2023-05-19T08:49:28.630Z,48.05
2023-05-19T08:52:11.189Z,47.58
2023-05-19T08:54:43.834Z,48.99
2023-05-19T08:57:13.860Z,47.28
2023-05-19T08:59:42.472Z,47.59
2023-05-19T09:02:12.963Z,48.30
2023-05-19T09:04:41.633Z,47.48
2023-05-19T09:07:10.934Z,47.25
2023-05-19T09:09:40.860Z,47.70
2023-05-19T09:12:08.783Z,47.33
2023-05-19T09:14:38.230Z,48.17
2023-05-19T09:17:06.734Z,48.49
2023-05-19T09:19:34.943Z,48.60
2023-05-19T09:22:04.775Z,49.03
2023-05-19T09:24:33.076Z,48.32
2023-05-19T09:27:01.038Z,49.66
2023-05-19T09:29:28.995Z,48.06
2023-05-19T09:32:01.652Z,47.50
2023-05-19T09:34:29.713Z,46.95
2023-05-19T09:36:58.048Z,46.58
2023-05-19T09:39:26.318Z,44.90
2023-05-19T09:41:54.704Z,47.03
2023-05-19T09:44:29.271Z,44.70
2023-05-19T09:46:59.830Z,44.93
2023-05-19T09:49:29.770Z,45.12
2023-05-19T09:51:58.181Z,44.35
2023-05-19T09:54:27.626Z,43.95
2023-05-19T09:57:00.081Z,44.33
2023-05-19T09:59:31.522Z,44.23
2023-05-19T10:02:03.170Z,41.04
2023-05-19T10:04:32.064Z,43.61
2023-05-19T10:07:00.511Z,43.01
2023-05-19T10:09:29.977Z,42.58
2023-05-19T10:11:59.143Z,43.45
2023-05-19T10:14:27.651Z,42.23
2023-05-19T10:16:56.727Z,41.89
2023-05-19T10:19:26.943Z,42.01
2023-05-19T10:21:55.154Z,41.86
2023-05-19T10:24:23.319Z,41.33
2023-05-19T10:26:54.892Z,39.52
2023-05-19T10:29:26.816Z,40.52
2023-05-19T10:31:55.702Z,41.59
2023-05-19T10:34:42.027Z,39.89
2023-05-19T10:37:17.975Z,40.96
2023-05-19T10:39:46.409Z,40.51
2023-05-19T10:42:18.315Z,38.38
2023-05-19T10:44:53.450Z,40.04
2023-05-19T10:47:25.047Z,39.74
2023-05-19T10:49:55.788Z,39.63
2023-05-19T10:52:26.158Z,37.19
2023-05-19T10:54:55.131Z,40.05
2023-05-19T10:57:27.678Z,37.73
2023-05-19T10:59:57.034Z,38.52
2023-05-19T11:02:46.121Z,38.88
2023-05-19T11:05:18.159Z,38.07
2023-05-19T11:07:56.211Z,36.75
2023-05-19T11:10:24.691Z,39.17
2023-05-19T11:12:53.250Z,37.91
2023-05-19T11:15:27.451Z,39.93
2023-05-19T11:17:56.376Z,39.10
2023-05-19T11:20:27.224Z,40.29
2023-05-19T11:23:08.378Z,38.08
2023-05-19T11:25:43.932Z,38.70
2023-05-19T11:28:13.333Z,36.23
2023-05-19T11:30:44.631Z,35.67
2023-05-19T11:33:13.479Z,37.67
2023-05-19T11:35:43.459Z,37.47
2023-05-19T11:38:12.570Z,36.00
2023-05-19T11:40:41.160Z,33.86
2023-05-19T11:43:09.143Z,34.07
2023-05-19T11:45:37.572Z,33.56
2023-05-19T11:48:07.041Z,36.02
2023-05-19T11:50:36.984Z,36.02
2023-05-19T11:53:06.471Z,36.01
2023-05-19T11:55:34.503Z,35.73
2023-05-19T11:58:05.456Z,35.72
2023-05-19T12:00:39.450Z,34.90
2023-05-19T12:03:08.333Z,32.15
2023-05-19T12:05:42.070Z,34.73
2023-05-19T12:08:12.850Z,34.38
2023-05-19T12:10:41.525Z,34.63
2023-05-19T12:13:10.555Z,34.86
2023-05-19T12:15:39.419Z,29.91
2023-05-19T12:18:07.820Z,34.54
2023-05-19T12:20:36.606Z,34.21
2023-05-19T12:23:04.834Z,35.18
2023-05-19T12:25:34.494Z,30.07
2023-05-19T12:28:04.571Z,34.62
2023-05-19T12:30:34.420Z,34.07
2023-05-19T12:33:03.735Z,33.87
2023-05-19T12:35:33.539Z,32.96
2023-05-19T12:38:04.565Z,34.01
2023-05-19T12:40:35.135Z,32.87
2023-05-19T12:43:03.606Z,33.80
2023-05-19T12:45:35.602Z,33.58
2023-05-19T12:48:05.388Z,34.61
2023-05-19T12:50:34.189Z,33.67
2023-05-19T12:53:02.582Z,32.83
2023-05-19T12:55:31.141Z,33.98
2023-05-19T12:58:00.473Z,33.16
2023-05-19T13:00:31.164Z,30.13
2023-05-19T13:03:04.985Z,30.84
2023-05-19T13:05:34.794Z,27.95
2023-05-19T13:08:05.573Z,29.05
2023-05-19T13:10:34.987Z,32.16
2023-05-19T13:13:07.465Z,30.22
2023-05-19T13:15:37.980Z,31.83
2023-05-19T13:18:09.026Z,32.91
2023-05-19T13:20:37.383Z,30.61
2023-05-19T13:23:05.991Z,31.29
2023-05-19T13:25:34.449Z,34.04
2023-05-19T13:28:05.256Z,31.77
2023-05-19T13:30:39.524Z,32.52
2023-05-19T13:33:08.091Z,30.62
2023-05-19T13:35:38.105Z,32.39
2023-05-19T13:38:06.824Z,29.88
2023-05-19T13:40:35.665Z,32.67
2023-05-19T13:43:04.261Z,30.57
2023-05-19T13:45:32.216Z,27.99
2023-05-19T13:48:01.686Z,31.91
2023-05-19T13:50:29.733Z,31.57
2023-05-19T13:52:57.662Z,31.86
2023-05-19T13:55:27.494Z,28.70
2023-05-19T13:57:55.970Z,32.29
2023-05-19T14:00:24.060Z,28.82
2023-05-19T14:02:52.779Z,26.96
2023-05-19T14:05:22.341Z,31.47
2023-05-19T14:07:50.320Z,28.26
2023-05-19T14:10:18.333Z,30.62
2023-05-19T14:13:14.020Z,27.80
2023-05-19T14:15:37.955Z,29.96
2023-05-19T14:18:07.028Z,31.13
2023-05-19T14:20:36.708Z,30.53
2023-05-19T14:23:04.830Z,30.81
2023-05-19T14:25:32.863Z,32.89
2023-05-19T14:28:00.997Z,32.67
2023-05-19T14:30:29.070Z,32.75
2023-05-19T14:32:57.420Z,32.59
2023-05-19T14:35:26.100Z,29.56
2023-05-19T14:37:55.549Z,31.01
2023-05-19T14:40:23.519Z,30.59
2023-05-19T14:42:51.480Z,29.64
2023-05-19T14:45:19.554Z,28.19
2023-05-19T14:47:48.037Z,28.44
2023-05-19T14:50:16.161Z,29.75
2023-05-19T14:52:44.097Z,30.16
2023-05-19T14:55:13.434Z,30.72
2023-05-19T14:57:41.393Z,29.85
2023-05-19T15:00:10.391Z,30.18
2023-05-19T15:02:38.426Z,29.00
2023-05-19T15:05:06.966Z,30.54
2023-05-19T15:07:34.921Z,29.38
2023-05-19T15:10:03.286Z,30.28
2023-05-19T15:12:34.859Z,31.86
2023-05-19T15:15:02.910Z,31.26
2023-05-19T15:17:30.990Z,31.85
2023-05-19T15:19:58.933Z,29.13
2023-05-19T15:22:27.715Z,28.61
2023-05-19T15:24:55.729Z,29.68
2023-05-19T15:27:23.959Z,29.07
2023-05-19T15:29:53.357Z,30.29
2023-05-19T15:32:21.393Z,30.22
2023-05-19T15:34:49.405Z,31.09
2023-05-19T15:37:17.452Z,30.42
2023-05-19T15:39:45.373Z,31.29
2023-05-19T15:42:13.336Z,32.04
2023-05-19T15:44:41.326Z,31.83
2023-05-19T15:47:10.789Z,34.05
2023-05-19T15:49:38.824Z,34.19
2023-05-19T15:52:07.370Z,33.59
2023-05-19T15:54:35.328Z,35.19
2023-05-19T15:57:03.244Z,33.79
2023-05-19T15:59:31.175Z,33.81
2023-05-19T16:01:59.177Z,34.99
2023-05-19T16:04:28.493Z,34.43
2023-05-19T16:06:56.582Z,33.27
2023-05-19T16:09:24.570Z,31.70
2023-05-19T16:11:52.529Z,31.73
2023-05-19T16:14:20.488Z,31.85
2023-05-19T16:16:48.499Z,32.13
2023-05-19T16:19:16.587Z,32.87
2023-05-19T16:21:45.965Z,33.31
2023-05-19T16:24:13.961Z,34.37
2023-05-19T16:26:41.967Z,34.20
2023-05-19T16:29:09.873Z,35.46
2023-05-19T16:31:37.879Z,35.60
2023-05-19T16:34:05.888Z,35.31
2023-05-19T16:36:33.950Z,35.44
2023-05-19T16:39:03.338Z,35.12
2023-05-19T16:41:31.261Z,36.50
2023-05-19T16:43:59.235Z,37.59
2023-05-19T16:46:29.093Z,35.58
2023-05-19T16:48:57.918Z,34.10
2023-05-19T16:51:25.856Z,35.29
2023-05-19T16:53:53.805Z,35.82
2023-05-19T16:56:23.197Z,34.92
2023-05-19T16:58:51.340Z,34.95
2023-05-19T17:01:19.304Z,34.95
2023-05-19T17:03:47.317Z,34.90
2023-05-19T17:06:15.359Z,34.43
2023-05-19T17:08:43.348Z,33.83
2023-05-19T17:11:11.486Z,33.84
2023-05-19T17:13:42.317Z,34.91
2023-05-19T17:16:10.503Z,34.93
2023-05-19T17:18:38.526Z,33.17
2023-05-19T17:21:06.523Z,34.16
2023-05-19T17:23:34.603Z,34.50
2023-05-19T17:26:03.272Z,34.33
2023-05-19T17:28:31.437Z,34.84
2023-05-19T17:31:01.484Z,35.18
2023-05-19T17:33:29.508Z,35.80
2023-05-19T17:35:57.630Z,35.72
2023-05-19T17:38:25.658Z,35.88
2023-05-19T17:40:53.798Z,36.37
2023-05-19T17:43:21.721Z,36.79
2023-05-19T17:45:49.693Z,37.65
2023-05-19T17:48:19.028Z,37.99
2023-05-19T17:50:56.255Z,38.15
2023-05-19T17:53:24.725Z,38.26
2023-05-19T17:55:54.528Z,38.68
2023-05-19T17:58:23.008Z,38.98
2023-05-19T18:00:51.620Z,39.97
2023-05-19T18:03:21.684Z,39.11
2023-05-19T18:05:50.460Z,40.28
2023-05-19T18:08:18.785Z,39.64
2023-05-19T18:10:48.601Z,39.84
2023-05-19T18:13:16.582Z,40.19
2023-05-19T18:15:44.568Z,40.31
2023-05-19T18:18:12.776Z,40.70
2023-05-19T18:20:44.778Z,41.10
2023-05-19T18:23:12.833Z,42.07
2023-05-19T18:25:40.799Z,41.24
2023-05-19T18:28:09.161Z,41.27
2023-05-19T18:30:37.093Z,41.01
2023-05-19T18:33:05.898Z,41.00
2023-05-19T18:35:33.913Z,42.22
2023-05-19T18:38:03.222Z,42.27
2023-05-19T18:40:31.395Z,42.68
2023-05-19T18:42:59.587Z,42.91
2023-05-19T18:45:27.535Z,43.43
2023-05-19T18:47:55.496Z,42.88
2023-05-19T18:50:23.526Z,43.62
2023-05-19T18:52:51.481Z,43.40
2023-05-19T18:55:20.785Z,43.76
2023-05-19T18:57:48.762Z,44.48
2023-05-19T19:00:18.128Z,44.23
2023-05-19T19:02:46.095Z,44.84
2023-05-19T19:05:14.095Z,44.00
2023-05-19T19:07:43.191Z,44.14
2023-05-19T19:10:11.262Z,44.09
2023-05-19T19:12:43.013Z,44.22
2023-05-19T19:15:12.114Z,44.45
2023-05-19T19:17:41.210Z,44.70
2023-05-19T19:20:10.222Z,45.05
2023-05-19T19:22:38.305Z,45.05
2023-05-19T19:25:06.994Z,44.73
2023-05-19T19:27:35.739Z,44.48
2023-05-19T19:30:05.880Z,44.89
2023-05-19T19:32:33.950Z,44.68
2023-05-19T19:35:01.973Z,44.92
2023-05-19T19:37:29.968Z,44.63
2023-05-19T19:39:57.940Z,44.81
2023-05-19T19:42:25.904Z,45.07
2023-05-19T19:44:56.133Z,45.31
2023-05-19T19:47:25.554Z,45.25
2023-05-19T19:49:53.510Z,44.88
2023-05-19T19:52:21.489Z,46.15
2023-05-19T19:54:49.428Z,45.44
2023-05-19T19:57:17.766Z,45.48
2023-05-19T19:59:45.813Z,45.52
2023-05-19T20:02:13.781Z,46.03
2023-05-19T20:04:57.459Z,46.50
2023-05-19T20:07:25.499Z,46.23
2023-05-19T20:09:53.467Z,46.42
2023-05-19T20:12:21.404Z,46.37
2023-05-19T20:14:51.420Z,46.15
2023-05-19T20:17:19.362Z,46.63
2023-05-19T20:19:48.791Z,46.37
2023-05-19T20:22:16.753Z,46.24
2023-05-19T20:24:44.801Z,46.22
2023-05-19T20:27:12.747Z,46.25
2023-05-19T20:29:40.691Z,46.54
2023-05-19T20:32:08.700Z,47.23
2023-05-19T20:34:36.809Z,46.38
2023-05-19T20:37:06.475Z,46.85
2023-05-19T20:39:34.533Z,46.91
2023-05-19T20:42:02.499Z,47.56
2023-05-19T20:44:30.415Z,47.20
2023-05-19T20:46:58.368Z,47.03
2023-05-19T20:49:26.319Z,48.48
2023-05-19T20:51:54.690Z,48.03
2023-05-19T20:54:24.031Z,48.05
2023-05-19T20:56:52.537Z,48.20
2023-05-19T20:59:20.505Z,47.30
2023-05-19T21:01:48.487Z,48.11
2023-05-19T21:04:16.517Z,47.79
2023-05-19T21:06:44.550Z,48.25
2023-05-19T21:09:12.493Z,48.03
2023-05-19T21:11:42.333Z,48.16
2023-05-19T21:14:10.255Z,48.03
2023-05-19T21:16:38.970Z,47.96
2023-05-19T21:19:07.487Z,48.09
2023-05-19T21:21:36.266Z,48.05
2023-05-19T21:24:04.372Z,48.36
2023-05-19T21:26:32.284Z,48.42
2023-05-19T21:29:01.597Z,48.45
2023-05-19T21:31:29.615Z,47.91
2023-05-19T21:33:57.548Z,47.98
2023-05-19T21:36:25.756Z,48.09
2023-05-19T21:38:53.730Z,48.06
2023-05-19T21:41:22.382Z,47.32
2023-05-19T21:43:50.378Z,47.04
2023-05-19T21:46:19.765Z,47.57
2023-05-19T21:48:47.697Z,47.74
2023-05-19T21:51:15.688Z,47.72
2023-05-19T21:53:43.617Z,47.63
2023-05-19T21:56:11.563Z,47.82
2023-05-19T21:58:39.730Z,47.58
2023-05-19T22:01:08.050Z,47.63
2023-05-19T22:03:37.429Z,48.00
2023-05-19T22:06:06.567Z,48.27
2023-05-19T22:08:34.520Z,48.12
2023-05-19T22:11:02.456Z,48.23
2023-05-19T22:13:30.686Z,48.58
2023-05-19T22:15:58.671Z,48.52
2023-05-19T22:18:26.602Z,49.03
2023-05-19T22:20:55.964Z,48.99
2023-05-19T22:23:23.888Z,48.82
2023-05-19T22:25:51.833Z,49.17
2023-05-19T22:28:19.856Z,49.19
2023-05-19T22:30:47.816Z,48.96
2023-05-19T22:33:16.129Z,49.42
2023-05-19T22:35:44.196Z,49.63
2023-05-19T22:38:13.540Z,49.58
2023-05-19T22:40:41.484Z,49.33
2023-05-19T22:43:09.411Z,49.50
2023-05-19T22:45:37.526Z,49.32
2023-05-19T22:48:06.329Z,49.13
2023-05-19T22:50:34.366Z,49.63
2023-05-19T22:53:02.374Z,49.60
2023-05-19T22:55:32.286Z,50.08
2023-05-19T22:58:00.420Z,49.56
2023-05-19T23:00:28.335Z,49.89
2023-05-19T23:02:58.256Z,50.19
2023-05-19T23:05:26.376Z,50.20
2023-05-19T23:07:54.394Z,50.03
2023-05-19T23:10:22.315Z,50.11
2023-05-19T23:12:51.654Z,50.25
2023-05-19T23:15:19.657Z,50.33
2023-05-19T23:17:47.608Z,50.47
2023-05-19T23:20:15.677Z,50.44
2023-05-19T23:22:43.622Z,50.42
2023-05-19T23:25:11.584Z,50.31
2023-05-19T23:27:39.556Z,50.82
2023-05-19T23:30:10.185Z,50.96
2023-05-19T23:32:38.207Z,50.79
2023-05-19T23:35:13.882Z,50.83
2023-05-19T23:37:41.847Z,50.83
2023-05-19T23:40:10.415Z,50.80
2023-05-19T23:42:38.579Z,50.76
2023-05-19T23:45:09.288Z,51.22
2023-05-19T23:47:37.376Z,50.95
2023-05-19T23:50:05.839Z,50.98
2023-05-19T23:52:33.796Z,50.93
2023-05-19T23:55:03.290Z,51.20
2023-05-19T23:57:31.243Z,51.08
2023-05-19T23:59:59.828Z,51.48
